Time;durP1;ratioP1;P1;durP2;ratioP2;P2;SDS_P1;SDS_P2;PMS_P1;PMS_P2;Temp;Humidity;BMP_temperature;BMP_pressure;BME280_temperature;BME280_humidity;BME280_pressure;Samples;Min_cycle;Max_cycle;Signal;HPM_P1;HPM_P2
2023/02/18 00:01:00;;;;;;;1.17;0.10;;;;;;;-142.37;100.00;59669.53;5094016;28;20036;-61
2023/02/18 00:03:27;;;;;;;15.57;5.88;;;;;;;-142.37;100.00;59669.53;5094352;28;20032;-61
2023/02/18 00:05:53;;;;;;;16.25;7.25;;;;;;;-142.37;100.00;59669.53;5095945;28;20545;-60
2023/02/18 00:08:20;;;;;;;15.73;6.43;;;;;;;-142.37;100.00;59669.53;5095714;28;20025;-59
2023/02/18 00:10:46;;;;;;;14.27;7.13;;;;;;;-142.37;100.00;59669.53;5094116;28;20069;-59
2023/02/18 00:13:11;;;;;;;12.75;6.40;;;;;;;-142.37;100.00;59669.53;5095003;28;20032;-60
2023/02/18 00:15:37;;;;;;;11.65;5.55;;;;;;;-142.37;100.00;59669.53;5095393;28;20131;-60
2023/02/18 00:18:03;;;;;;;9.23;5.57;;;;;;;-142.37;100.00;59669.53;5094069;28;20028;-58
2023/02/18 00:20:32;;;;;;;9.95;5.63;;;;;;;-142.37;100.00;59669.53;5095367;28;20031;-60
2023/02/18 00:22:58;;;;;;;8.07;5.05;;;;;;;-142.37;100.00;59669.53;5077276;28;20082;-61
2023/02/18 00:25:24;;;;;;;10.48;5.72;;;;;;;-142.37;100.00;59669.53;5095179;28;20050;-62
2023/02/18 00:27:50;;;;;;;10.45;6.32;;;;;;;-142.37;100.00;59669.53;5095810;28;20024;-60
2023/02/18 00:30:16;;;;;;;9.73;5.32;;;;;;;-142.37;100.00;59669.53;5095571;28;20476;-61
2023/02/18 00:32:42;;;;;;;9.45;5.60;;;;;;;-142.37;100.00;59669.53;5095632;28;20039;-61
2023/02/18 00:35:08;;;;;;;7.60;5.32;;;;;;;-142.37;100.00;59669.53;5095114;28;20135;-59
2023/02/18 00:37:34;;;;;;;13.50;6.78;;;;;;;-142.37;100.00;59669.53;5095301;28;20911;-59
2023/02/18 00:39:59;;;;;;;9.48;5.82;;;;;;;-142.37;100.00;59669.53;5094727;28;20039;-59
2023/02/18 00:42:25;;;;;;;10.32;6.22;;;;;;;-142.37;100.00;59669.53;5093615;28;20060;-60
2023/02/18 00:44:51;;;;;;;11.80;6.07;;;;;;;-142.37;100.00;59669.53;5094819;28;20031;-59
2023/02/18 00:47:17;;;;;;;12.35;5.80;;;;;;;-142.37;100.00;59669.53;5093418;28;20083;-60
2023/02/18 00:49:42;;;;;;;9.05;6.20;;;;;;;-142.37;100.00;59669.53;5092426;28;20126;-60
2023/02/18 00:52:08;;;;;;;15.15;7.32;;;;;;;-142.37;100.00;59669.53;5094622;28;20032;-61
2023/02/18 00:54:34;;;;;;;15.27;7.72;;;;;;;-142.37;100.00;59669.53;5093410;28;20031;-60
2023/02/18 00:56:59;;;;;;;16.15;8.05;;;;;;;-142.37;100.00;59669.53;5093409;28;20028;-61
2023/02/18 00:59:25;;;;;;;15.75;7.38;;;;;;;-142.37;100.00;59669.53;5094783;28;20043;-60
2023/02/18 01:01:51;;;;;;;15.45;7.47;;;;;;;-142.37;100.00;59669.53;5094497;28;20028;-61
2023/02/18 01:04:17;;;;;;;18.45;7.88;;;;;;;-142.37;100.00;59669.53;5094467;28;20494;-60
2023/02/18 01:06:42;;;;;;;16.20;8.00;;;;;;;-142.37;100.00;59669.53;5094487;28;20032;-60
2023/02/18 01:09:09;;;;;;;14.98;8.13;;;;;;;-142.37;100.00;59669.53;5092722;28;20054;-60
2023/02/18 01:11:35;;;;;;;12.13;6.93;;;;;;;-142.37;100.00;59669.53;5094540;28;20024;-59
2023/02/18 01:14:01;;;;;;;13.85;6.50;;;;;;;-142.37;100.00;59669.53;5094574;28;20047;-60
2023/02/18 01:16:26;;;;;;;13.93;6.22;;;;;;;-142.37;100.00;59669.53;5094145;28;20440;-61
2023/02/18 01:18:52;;;;;;;13.23;7.28;;;;;;;-142.37;100.00;59669.53;5094134;28;20107;-61
2023/02/18 01:21:17;;;;;;;14.63;7.38;;;;;;;-142.37;100.00;59669.53;5093799;28;20036;-61
2023/02/18 01:23:43;;;;;;;13.98;7.20;;;;;;;-142.37;100.00;59669.53;5092657;28;20024;-61
2023/02/18 01:26:10;;;;;;;13.45;6.35;;;;;;;-142.37;100.00;59669.53;5093122;28;20032;-59
2023/02/18 01:28:36;;;;;;;10.63;5.60;;;;;;;-142.37;100.00;59669.53;5094057;28;20039;-61
2023/02/18 01:31:11;;;;;;;11.20;5.47;;;;;;;-142.37;100.00;59669.53;5092668;28;20111;-60
2023/02/18 01:33:37;;;;;;;11.60;5.75;;;;;;;-142.37;100.00;59669.53;5092774;28;20114;-60
2023/02/18 01:36:04;;;;;;;8.30;4.63;;;;;;;-142.37;100.00;59669.53;5093903;28;20040;-59
2023/02/18 01:38:29;;;;;;;6.68;3.90;;;;;;;-142.37;100.00;59669.53;5092462;28;20080;-59
2023/02/18 01:40:55;;;;;;;4.20;2.58;;;;;;;-142.37;100.00;59669.53;5093975;28;20032;-61
2023/02/18 01:43:21;;;;;;;3.70;2.53;;;;;;;-142.37;100.00;59669.53;5092187;28;20024;-60
2023/02/18 01:45:57;;;;;;;3.83;1.83;;;;;;;-142.37;100.00;59669.53;5093422;28;20438;-62
2023/02/18 01:48:40;;;;;;;2.25;1.48;;;;;;;-142.37;100.00;59669.53;5092345;28;20024;-60
2023/02/18 01:51:15;;;;;;;1.85;1.33;;;;;;;-142.37;100.00;59669.53;5091926;28;20399;-61
2023/02/18 01:54:09;;;;;;;1.50;1.05;;;;;;;-142.37;100.00;59669.53;5093677;28;20043;-61
2023/02/18 01:56:38;;;;;;;0.90;0.75;;;;;;;-142.37;100.00;59669.53;5089544;28;20102;-60
2023/02/18 01:59:13;;;;;;;1.65;1.00;;;;;;;-142.37;100.00;59669.53;5091969;28;20080;-61
2023/02/18 02:01:42;;;;;;;1.70;1.30;;;;;;;-142.37;100.00;59669.53;5091964;28;20032;-61
2023/02/18 02:04:08;;;;;;;2.33;2.03;;;;;;;-142.37;100.00;59669.53;5093308;28;20059;-61
2023/02/18 02:06:34;;;;;;;2.45;2.08;;;;;;;-142.37;100.00;59669.53;5093296;28;20066;-60
2023/02/18 02:09:02;;;;;;;3.92;2.67;;;;;;;-142.37;100.00;59669.53;5091658;28;20243;-61
2023/02/18 02:11:51;;;;;;;2.95;2.22;;;;;;;-142.37;100.00;59669.53;5091902;28;20017;-61
2023/02/18 02:14:32;;;;;;;4.40;2.95;;;;;;;-142.37;100.00;59669.53;5092653;28;20396;-62
2023/02/18 02:17:26;;;;;;;3.05;2.75;;;;;;;-142.37;100.00;59669.53;5092972;28;20027;-60
2023/02/18 02:20:24;;;;;;;2.67;2.08;;;;;;;-142.37;100.00;59669.53;5091362;28;20032;-61
2023/02/18 02:23:14;;;;;;;2.53;1.73;;;;;;;-142.37;100.00;59669.53;5092311;28;20055;-60
2023/02/18 02:26:17;;;;;;;2.83;1.65;;;;;;;-142.37;100.00;59669.53;5092711;28;20020;-61
2023/02/18 02:29:03;;;;;;;1.77;1.30;;;;;;;-142.37;100.00;59669.53;5093621;28;20338;-59
2023/02/18 02:31:51;;;;;;;1.50;1.00;;;;;;;-142.37;100.00;59669.53;5091795;28;20057;-61
2023/02/18 02:34:25;;;;;;;2.65;0.82;;;;;;;-142.37;100.00;59669.53;5091629;28;20027;-60
2023/02/18 02:37:01;;;;;;;1.60;1.02;;;;;;;-142.37;100.00;59669.53;5092718;28;20024;-61
2023/02/18 02:39:39;;;;;;;2.35;1.30;;;;;;;-142.37;100.00;59669.53;5093029;28;20036;-60
2023/02/18 02:42:46;;;;;;;1.95;1.33;;;;;;;-142.37;100.00;59669.53;5091598;28;20028;-61
2023/02/18 02:45:23;;;;;;;5.90;2.50;;;;;;;-142.37;100.00;59669.53;5092233;28;20036;-61
2023/02/18 02:47:54;;;;;;;3.35;1.77;;;;;;;-142.37;100.00;59669.53;5091232;28;20442;-59
2023/02/18 02:50:26;;;;;;;2.80;2.15;;;;;;;-142.37;100.00;59669.53;5091291;28;20020;-59
2023/02/18 02:52:58;;;;;;;2.15;1.85;;;;;;;-142.37;100.00;59669.53;5092388;28;20476;-59
2023/02/18 02:55:24;;;;;;;3.70;2.92;;;;;;;-142.37;100.00;59669.53;5092307;28;20065;-59
2023/02/18 02:57:52;;;;;;;2.17;1.98;;;;;;;-142.37;100.00;59669.53;5090892;28;20024;-60
2023/02/18 03:00:34;;;;;;;3.55;2.40;;;;;;;-142.37;100.00;59669.53;5092483;28;20035;-58
2023/02/18 03:03:27;;;;;;;2.10;1.80;;;;;;;-142.37;100.00;59669.53;5090750;28;20036;-60
2023/02/18 03:06:18;;;;;;;2.17;1.40;;;;;;;-142.37;100.00;59669.53;5092970;28;20031;-60
2023/02/18 03:09:11;;;;;;;2.45;1.58;;;;;;;-142.37;100.00;59669.53;5093037;28;20035;-60
2023/02/18 03:12:03;;;;;;;0.82;0.80;;;;;;;-142.37;100.00;59669.53;5091005;28;20120;-60
2023/02/18 03:14:44;;;;;;;1.50;0.93;;;;;;;-142.37;100.00;59669.53;5090258;28;20073;-60
2023/02/18 03:17:40;;;;;;;0.80;0.50;;;;;;;-142.37;100.00;59669.53;5092348;28;20523;-59
2023/02/18 03:20:22;;;;;;;1.15;0.90;;;;;;;-142.37;100.00;59669.53;5089019;28;20492;-59
2023/02/18 03:22:50;;;;;;;0.60;0.43;;;;;;;-142.37;100.00;59669.53;5090714;28;20020;-58
2023/02/18 03:25:17;;;;;;;1.05;0.60;;;;;;;-142.37;100.00;59669.53;5090747;28;20051;-59
2023/02/18 03:28:00;;;;;;;0.73;0.50;;;;;;;-142.37;100.00;59669.53;5092129;28;20024;-59
2023/02/18 03:30:42;;;;;;;0.57;0.40;;;;;;;-142.37;100.00;59669.53;5090707;28;20032;-60
2023/02/18 03:33:13;;;;;;;0.77;0.40;;;;;;;-142.37;100.00;59669.53;5090336;28;20024;-59
2023/02/18 03:35:40;;;;;;;0.47;0.43;;;;;;;-142.37;100.00;59669.53;5091949;28;20032;-59
2023/02/18 03:38:09;;;;;;;1.52;0.77;;;;;;;-142.37;100.00;59669.53;5090616;28;20039;-59
2023/02/18 03:40:35;;;;;;;1.15;0.93;;;;;;;-142.37;100.00;59669.53;5090915;28;20039;-60
2023/02/18 03:43:00;;;;;;;0.95;0.70;;;;;;;-142.37;100.00;59669.53;5090551;28;20047;-59
2023/02/18 03:45:27;;;;;;;0.60;0.50;;;;;;;-142.37;100.00;59669.53;5090465;28;20139;-58
2023/02/18 03:47:52;;;;;;;0.95;0.60;;;;;;;-142.37;100.00;59669.53;5090413;28;20039;-58
2023/02/18 03:50:18;;;;;;;2.35;0.75;;;;;;;-142.37;100.00;59669.53;5091748;28;20028;-60
2023/02/18 03:52:44;;;;;;;0.95;0.60;;;;;;;-142.37;100.00;59669.53;5090521;28;20028;-59
2023/02/18 03:55:10;;;;;;;0.43;0.20;;;;;;;-142.37;100.00;59669.53;5090018;28;20373;-58
2023/02/18 03:57:35;;;;;;;0.82;0.32;;;;;;;-142.37;100.00;59669.53;5090358;28;20541;-59
2023/02/18 04:00:05;;;;;;;0.80;0.20;;;;;;;-142.37;100.00;59669.53;5091574;28;20028;-59
2023/02/18 04:02:30;;;;;;;0.80;0.10;;;;;;;-142.37;100.00;59669.53;5091466;28;20042;-60
2023/02/18 04:04:56;;;;;;;0.65;0.32;;;;;;;-142.37;100.00;59669.53;5091444;28;20426;-59
2023/02/18 04:07:22;;;;;;;0.40;0.10;;;;;;;-142.37;100.00;59669.53;5090416;28;20032;-59
2023/02/18 04:09:47;;;;;;;0.40;0.10;;;;;;;-142.37;100.00;59669.53;5090205;28;20068;-59
2023/02/18 04:12:14;;;;;;;0.30;0.10;;;;;;;-142.37;100.00;59669.53;5091390;28;20025;-60
2023/02/18 04:14:40;;;;;;;0.25;0.10;;;;;;;-142.37;100.00;59669.53;5090986;28;20052;-60
2023/02/18 04:17:05;;;;;;;0.20;0.10;;;;;;;-142.37;100.00;59669.53;5091804;28;20069;-58
2023/02/18 04:19:31;;;;;;;0.30;0.10;;;;;;;-142.37;100.00;59669.53;5091542;28;20028;-58
2023/02/18 04:21:57;;;;;;;0.25;0.00;;;;;;;-142.37;100.00;59669.53;5090374;28;20036;-60
2023/02/18 04:24:22;;;;;;;0.08;0.00;;;;;;;-142.37;100.00;59669.53;5091709;28;20156;-59
2023/02/18 04:26:48;;;;;;;0.70;0.00;;;;;;;-142.37;100.00;59669.53;5095264;28;20024;-58
2023/02/18 04:29:14;;;;;;;0.13;0.10;;;;;;;-142.37;100.00;59669.53;5093611;28;20028;-60
2023/02/18 04:31:39;;;;;;;0.22;0.10;;;;;;;-142.37;100.00;59669.53;5095344;28;20473;-58
2023/02/18 04:34:05;;;;;;;0.30;0.20;;;;;;;-142.37;100.00;59669.53;5093859;28;20028;-59
2023/02/18 04:36:31;;;;;;;0.80;0.10;;;;;;;-142.37;100.00;59669.53;5095321;28;20070;-60
2023/02/18 04:38:56;;;;;;;0.32;0.00;;;;;;;-142.37;100.00;59669.53;5093597;28;20032;-61
2023/02/18 04:41:22;;;;;;;0.52;0.10;;;;;;;-142.37;100.00;59669.53;5095003;28;20089;-59
2023/02/18 04:43:48;;;;;;;0.60;0.03;;;;;;;-142.37;100.00;59669.53;5093600;28;20123;-59
2023/02/18 04:46:13;;;;;;;0.35;0.10;;;;;;;-142.37;100.00;59669.53;5094694;28;20427;-59
2023/02/18 04:48:39;;;;;;;1.05;0.13;;;;;;;-142.37;100.00;59669.53;5094686;28;20028;-58
2023/02/18 04:51:06;;;;;;;0.30;0.10;;;;;;;-142.37;100.00;59669.53;5093189;28;20119;-59
2023/02/18 04:53:32;;;;;;;0.32;0.10;;;;;;;-142.37;100.00;59669.53;5094962;28;20032;-60
2023/02/18 04:55:58;;;;;;;0.25;0.10;;;;;;;-142.37;100.00;59669.53;5094729;28;20101;-60
2023/02/18 04:58:24;;;;;;;0.47;0.10;;;;;;;-142.37;100.00;59669.53;5094469;28;20036;-60
2023/02/18 05:00:49;;;;;;;0.55;0.15;;;;;;;-142.37;100.00;59669.53;5093434;28;20028;-60
2023/02/18 05:03:16;;;;;;;0.40;0.20;;;;;;;-142.37;100.00;59669.53;5094542;28;20028;-58
2023/02/18 05:05:41;;;;;;;0.30;0.20;;;;;;;-142.37;100.00;59669.53;5094927;28;20031;-60
2023/02/18 05:08:07;;;;;;;0.32;0.10;;;;;;;-142.37;100.00;59669.53;5094372;28;20032;-58
2023/02/18 05:10:33;;;;;;;0.57;0.20;;;;;;;-142.37;100.00;59669.53;5094296;28;20329;-60
2023/02/18 05:12:59;;;;;;;0.15;0.05;;;;;;;-142.37;100.00;59669.53;5092594;28;20463;-60
2023/02/18 05:15:25;;;;;;;0.20;0.10;;;;;;;-142.37;100.00;59669.53;5094231;28;20068;-58
2023/02/18 05:17:51;;;;;;;0.20;0.00;;;;;;;-142.37;100.00;59669.53;5094374;28;20107;-60
2023/02/18 05:20:17;;;;;;;0.22;0.08;;;;;;;-142.37;100.00;59669.53;5092764;28;20425;-61
2023/02/18 05:22:42;;;;;;;0.40;0.20;;;;;;;-142.37;100.00;59669.53;5094271;28;20043;-59
2023/02/18 05:25:08;;;;;;;1.65;0.20;;;;;;;-142.37;100.00;59669.53;5093716;28;20024;-59
2023/02/18 05:27:35;;;;;;;0.13;0.00;;;;;;;-142.37;100.00;59669.53;5093978;28;20031;-57
2023/02/18 05:30:00;;;;;;;0.13;0.00;;;;;;;-142.37;100.00;59669.53;5093866;28;20103;-59
2023/02/18 05:32:26;;;;;;;0.38;0.10;;;;;;;-142.37;100.00;59669.53;5094062;28;20169;-58
2023/02/18 05:34:52;;;;;;;0.63;0.10;;;;;;;-142.37;100.00;59669.53;5092719;28;20097;-61
2023/02/18 05:37:18;;;;;;;0.20;0.08;;;;;;;-142.37;100.00;59669.53;5093173;28;20056;-60
2023/02/18 05:39:44;;;;;;;0.40;0.17;;;;;;;-142.37;100.00;59669.53;5094160;28;20039;-59
2023/02/18 05:42:10;;;;;;;0.10;0.08;;;;;;;-142.37;100.00;59669.53;5094269;28;20103;-59
2023/02/18 05:44:36;;;;;;;0.38;0.10;;;;;;;-142.37;100.00;59669.53;5093556;28;20115;-59
2023/02/18 05:47:05;;;;;;;0.08;0.00;;;;;;;-142.37;100.00;59669.53;5093196;28;20036;-59
2023/02/18 05:49:33;;;;;;;0.15;0.10;;;;;;;-142.37;100.00;59669.53;5092165;28;20024;-59
2023/02/18 05:51:59;;;;;;;2.53;0.10;;;;;;;-142.37;100.00;59669.53;5092102;28;20035;-59
2023/02/18 05:54:26;;;;;;;0.30;0.10;;;;;;;-142.37;100.00;59669.53;5093293;28;20032;-60
2023/02/18 05:56:52;;;;;;;0.17;0.00;;;;;;;-142.37;100.00;59669.53;5093677;28;20521;-61
2023/02/18 05:59:18;;;;;;;0.10;0.03;;;;;;;-142.37;100.00;59669.53;5093106;28;20028;-61
2023/02/18 06:01:44;;;;;;;0.35;0.10;;;;;;;-142.37;100.00;59669.53;5092108;28;20081;-59
2023/02/18 06:04:10;;;;;;;0.10;0.03;;;;;;;-142.37;100.00;59669.53;5093292;28;20021;-59
2023/02/18 06:06:36;;;;;;;0.00;0.00;;;;;;;-142.37;100.00;59669.53;5093900;28;20043;-61
2023/02/18 06:09:03;;;;;;;0.15;0.10;;;;;;;-142.37;100.00;59669.53;5093730;28;20103;-61
2023/02/18 06:11:29;;;;;;;0.20;0.10;;;;;;;-142.37;100.00;59669.53;5093416;28;20073;-60
2023/02/18 06:13:55;;;;;;;0.22;0.00;;;;;;;-142.37;100.00;59669.53;5093154;28;20127;-60
2023/02/18 06:16:22;;;;;;;0.10;0.00;;;;;;;-142.37;100.00;59669.53;5093189;28;20119;-61
2023/02/18 06:18:47;;;;;;;0.20;0.10;;;;;;;-142.37;100.00;59669.53;5092949;28;20040;-60
2023/02/18 06:21:13;;;;;;;0.10;0.00;;;;;;;-142.37;100.00;59669.53;5091472;28;20038;-60
2023/02/18 06:23:39;;;;;;;0.17;0.10;;;;;;;-142.37;100.00;59669.53;5093189;28;20099;-59
2023/02/18 06:26:08;;;;;;;0.10;0.00;;;;;;;-142.37;100.00;59669.53;5091346;28;20063;-59
2023/02/18 06:28:34;;;;;;;0.20;0.10;;;;;;;-142.37;100.00;59669.53;5092974;28;20102;-61
2023/02/18 06:31:00;;;;;;;0.10;0.00;;;;;;;-142.37;100.00;59669.53;5092867;28;20046;-60
2023/02/18 06:33:26;;;;;;;0.10;0.00;;;;;;;-142.37;100.00;59669.53;5093016;28;20536;-60
2023/02/18 06:36:00;;;;;;;0.50;0.00;;;;;;;-142.37;100.00;59669.53;5091622;28;20115;-60
2023/02/18 06:38:27;;;;;;;0.00;0.00;;;;;;;-142.37;100.00;59669.53;5091400;28;20385;-60
2023/02/18 06:40:52;;;;;;;0.10;0.00;;;;;;;-142.37;100.00;59669.53;5091563;28;20499;-62
2023/02/18 06:43:19;;;;;;;0.77;0.10;;;;;;;-142.37;100.00;59669.53;5091404;28;20028;-60
2023/02/18 06:45:45;;;;;;;0.10;0.00;;;;;;;-142.37;100.00;59669.53;5092684;28;20081;-60
2023/02/18 06:48:12;;;;;;;2.10;0.10;;;;;;;-142.37;100.00;59669.53;5091931;28;20024;-59
2023/02/18 06:50:37;;;;;;;0.22;0.00;;;;;;;-142.37;100.00;59669.53;5092385;28;20050;-60
2023/02/18 06:53:03;;;;;;;0.03;0.00;;;;;;;-142.37;100.00;59669.53;5090302;28;20032;-60
2023/02/18 06:55:29;;;;;;;0.00;0.00;;;;;;;-142.37;100.00;59669.53;5090978;28;20028;-62
2023/02/18 06:57:55;;;;;;;0.03;0.00;;;;;;;-142.37;100.00;59669.53;5091199;28;20065;-61
2023/02/18 07:00:22;;;;;;;0.00;0.00;;;;;;;-142.37;100.00;59669.53;5091018;28;20118;-66
2023/02/18 07:02:48;;;;;;;0.28;0.10;;;;;;;-142.37;100.00;59669.53;5092449;28;20043;-60
2023/02/18 07:05:13;;;;;;;0.13;0.10;;;;;;;-142.37;100.00;59669.53;5091977;28;20016;-60
2023/02/18 07:07:39;;;;;;;0.08;0.00;;;;;;;-142.37;100.00;59669.53;5092237;28;20103;-59
2023/02/18 07:10:06;;;;;;;0.00;0.00;;;;;;;-142.37;100.00;59669.53;5092739;28;20039;-60
2023/02/18 07:12:32;;;;;;;0.00;0.00;;;;;;;-142.37;100.00;59669.53;5092641;28;20415;-62
2023/02/18 07:14:58;;;;;;;0.28;0.20;;;;;;;-142.37;100.00;59669.53;5091725;28;20130;-60
2023/02/18 07:17:24;;;;;;;0.10;0.00;;;;;;;-142.37;100.00;59669.53;5092066;28;20079;-61
2023/02/18 07:19:50;;;;;;;0.00;0.00;;;;;;;-142.37;100.00;59669.53;5090480;28;20042;-60
2023/02/18 07:22:16;;;;;;;0.00;0.00;;;;;;;-142.37;100.00;59669.53;5091824;28;20024;-60
2023/02/18 07:24:42;;;;;;;0.10;0.00;;;;;;;-142.37;100.00;59669.53;5092205;28;20032;-60
2023/02/18 07:27:08;;;;;;;2.00;0.00;;;;;;;-142.37;100.00;59669.53;5092221;28;20110;-60
2023/02/18 07:29:33;;;;;;;0.28;0.03;;;;;;;-142.37;100.00;59669.53;5092084;28;20081;-59
2023/02/18 07:31:59;;;;;;;0.32;0.10;;;;;;;-142.37;100.00;59669.53;5090764;28;20028;-59
2023/02/18 07:34:25;;;;;;;0.13;0.08;;;;;;;-142.37;100.00;59669.53;5091657;28;20060;-60
2023/02/18 07:36:50;;;;;;;0.00;0.00;;;;;;;-142.37;100.00;59669.53;5090232;28;20484;-60
2023/02/18 07:39:19;;;;;;;3.75;0.03;;;;;;;-142.37;100.00;59669.53;5092016;28;20028;-61
2023/02/18 07:41:46;;;;;;;0.00;0.00;;;;;;;-142.37;100.00;59669.53;5092505;28;20024;-60
2023/02/18 07:44:15;;;;;;;0.10;0.00;;;;;;;-142.37;100.00;59669.53;5092854;28;20150;-61
2023/02/18 07:46:41;;;;;;;0.00;0.00;;;;;;;-142.37;100.00;59669.53;5091836;28;20020;-60
2023/02/18 07:49:08;;;;;;;5.88;0.10;;;;;;;-142.37;100.00;59669.53;5092117;28;20031;-61
2023/02/18 07:51:34;;;;;;;0.30;0.00;;;;;;;-142.37;100.00;59669.53;5092116;28;20024;-59
2023/02/18 07:54:00;;;;;;;0.43;0.10;;;;;;;-142.37;100.00;59669.53;5093293;28;20036;-58
2023/02/18 07:56:25;;;;;;;0.43;0.10;;;;;;;-142.37;100.00;59669.53;5092911;28;20047;-60
2023/02/18 07:58:51;;;;;;;0.20;0.10;;;;;;;-142.37;100.00;59669.53;5092198;28;20024;-61
2023/02/18 08:01:17;;;;;;;0.10;0.10;;;;;;;-142.37;100.00;59669.53;5094699;28;20060;-61
2023/02/18 08:03:43;;;;;;;0.20;0.00;;;;;;;-142.37;100.00;59669.53;5094727;28;20031;-59
2023/02/18 08:06:20;;;;;;;0.13;0.03;;;;;;;-142.37;100.00;59669.53;5077569;28;20380;-60
2023/02/18 08:08:46;;;;;;;0.25;0.00;;;;;;;-142.37;100.00;59669.53;5094598;28;20144;-60
2023/02/18 08:11:12;;;;;;;0.15;0.10;;;;;;;-142.37;100.00;59669.53;5094371;28;20032;-60
2023/02/18 08:13:38;;;;;;;0.50;0.05;;;;;;;-142.37;100.00;59669.53;5096063;28;20545;-60
2023/02/18 08:16:04;;;;;;;0.55;0.00;;;;;;;-142.37;100.00;59669.53;5095354;28;20043;-61
2023/02/18 08:18:29;;;;;;;0.52;0.20;;;;;;;-142.37;100.00;59669.53;5095410;28;20593;-58
2023/02/18 08:20:55;;;;;;;0.30;0.10;;;;;;;-142.37;100.00;59669.53;5096466;28;20032;-60
2023/02/18 08:23:22;;;;;;;0.25;0.10;;;;;;;-142.37;100.00;59669.53;5096453;28;20377;-60
2023/02/18 08:25:49;;;;;;;0.60;0.25;;;;;;;-142.37;100.00;59669.53;5095289;28;20115;-58
2023/02/18 08:28:16;;;;;;;1.10;0.30;;;;;;;-142.37;100.00;59669.53;5096224;28;20388;-60
2023/02/18 08:30:46;;;;;;;0.30;0.22;;;;;;;-142.37;100.00;59669.53;5095018;28;20024;-60
2023/02/18 08:33:12;;;;;;;0.10;0.00;;;;;;;-142.37;100.00;59669.53;5093644;28;20035;-61
2023/02/18 08:35:38;;;;;;;0.35;0.20;;;;;;;-142.37;100.00;59669.53;5094137;28;20019;-60
2023/02/18 08:38:04;;;;;;;0.30;0.10;;;;;;;-142.37;100.00;59669.53;5093950;28;20023;-59
2023/02/18 08:40:30;;;;;;;0.20;0.05;;;;;;;-142.37;100.00;59669.53;5093746;28;20444;-59
2023/02/18 08:42:55;;;;;;;0.30;0.20;;;;;;;-142.37;100.00;59669.53;5094938;28;20481;-59
2023/02/18 08:45:21;;;;;;;0.25;0.10;;;;;;;-142.37;100.00;59669.53;5094644;28;20021;-60
2023/02/18 08:47:47;;;;;;;0.35;0.10;;;;;;;-142.37;100.00;59669.53;5093024;28;20028;-60
2023/02/18 08:50:13;;;;;;;0.40;0.20;;;;;;;-142.37;100.00;59669.53;5094667;28;20059;-60
2023/02/18 08:52:38;;;;;;;0.57;0.20;;;;;;;-142.37;100.00;59669.53;5092863;28;20051;-61
2023/02/18 08:55:05;;;;;;;0.20;0.10;;;;;;;-142.37;100.00;59669.53;5094102;28;20425;-58
2023/02/18 08:57:31;;;;;;;0.95;0.20;;;;;;;-142.37;100.00;59669.53;5094363;28;20028;-60
2023/02/18 08:59:56;;;;;;;0.30;0.10;;;;;;;-142.37;100.00;59669.53;5092952;28;20032;-60
2023/02/18 09:02:27;;;;;;;0.60;0.10;;;;;;;-142.37;100.00;59669.53;5093325;28;20503;-59
2023/02/18 09:04:53;;;;;;;0.40;0.20;;;;;;;-142.37;100.00;59669.53;5094467;28;20059;-60
2023/02/18 09:07:18;;;;;;;0.43;0.10;;;;;;;-142.37;100.00;59669.53;5092783;28;20064;-60
2023/02/18 09:09:44;;;;;;;0.38;0.17;;;;;;;-142.37;100.00;59669.53;5094246;28;20501;-59
2023/02/18 09:12:10;;;;;;;0.40;0.20;;;;;;;-142.37;100.00;59669.53;5093279;28;20055;-58
2023/02/18 09:14:35;;;;;;;0.03;0.00;;;;;;;-142.37;100.00;59669.53;5092586;28;20047;-59
2023/02/18 09:17:01;;;;;;;0.88;0.20;;;;;;;-142.37;100.00;59669.53;5093831;28;20024;-58
2023/02/18 09:19:27;;;;;;;0.30;0.20;;;;;;;-142.37;100.00;59669.53;5093177;28;20407;-60
2023/02/18 09:21:53;;;;;;;0.20;0.10;;;;;;;-142.37;100.00;59669.53;5093932;28;20039;-59
2023/02/18 09:24:19;;;;;;;0.65;0.13;;;;;;;-142.37;100.00;59669.53;5092614;28;20145;-59
2023/02/18 09:26:45;;;;;;;0.52;0.13;;;;;;;-142.37;100.00;59669.53;5092480;28;20027;-59
2023/02/18 09:29:11;;;;;;;0.30;0.13;;;;;;;-142.37;100.00;59669.53;5092284;28;20415;-62
2023/02/18 09:31:38;;;;;;;0.68;0.20;;;;;;;-142.37;100.00;59669.53;5093654;28;20050;-61
2023/02/18 09:34:05;;;;;;;0.30;0.10;;;;;;;-142.37;100.00;59669.53;5092813;28;20030;-61
2023/02/18 09:36:31;;;;;;;0.43;0.22;;;;;;;-142.37;100.00;59669.53;5093882;28;20028;-62
2023/02/18 09:38:57;;;;;;;0.65;0.10;;;;;;;-142.37;100.00;59669.53;5092065;28;20032;-61
2023/02/18 09:41:48;;;;;;;0.90;0.20;;;;;;;-142.37;100.00;59669.53;5092909;28;20036;-62
2023/02/18 09:44:17;;;;;;;0.47;0.20;;;;;;;-142.37;100.00;59669.53;5092555;28;20541;-59
2023/02/18 09:46:54;;;;;;;0.77;0.10;;;;;;;-142.37;100.00;59669.53;5092406;28;20028;-60
2023/02/18 09:49:25;;;;;;;0.70;0.10;;;;;;;-142.37;100.00;59669.53;5093356;28;20031;-59
2023/02/18 09:51:52;;;;;;;1.20;0.40;;;;;;;-142.37;100.00;59669.53;5092025;28;20032;-61
2023/02/18 09:54:19;;;;;;;0.50;0.17;;;;;;;-142.37;100.00;59669.53;5091793;28;20480;-60
2023/02/18 09:56:46;;;;;;;1.13;0.20;;;;;;;-142.37;100.00;59669.53;5092219;28;20119;-61
2023/02/18 09:59:17;;;;;;;12.07;1.27;;;;;;;-142.37;100.00;59669.53;5092076;28;20032;-60
2023/02/18 10:01:45;;;;;;;0.82;0.10;;;;;;;-142.37;100.00;59669.53;5093054;28;20028;-61
2023/02/18 10:04:16;;;;;;;0.73;0.15;;;;;;;-142.37;100.00;59669.53;5093687;28;20035;-60
2023/02/18 10:06:43;;;;;;;0.75;0.10;;;;;;;-142.37;100.00;59669.53;5093167;28;20099;-60
2023/02/18 10:09:27;;;;;;;2.95;0.40;;;;;;;-142.37;100.00;59669.53;5092975;28;20060;-60
2023/02/18 10:12:24;;;;;;;2.20;0.20;;;;;;;-142.37;100.00;59669.53;5091669;28;20540;-59
2023/02/18 10:14:55;;;;;;;3.05;0.38;;;;;;;-142.37;100.00;59669.53;5075214;28;20129;-62
2023/02/18 10:17:24;;;;;;;1.98;0.20;;;;;;;-142.37;100.00;59669.53;5092820;28;20031;-62
2023/02/18 10:19:52;;;;;;;4.35;0.65;;;;;;;-142.37;100.00;59669.53;5092975;28;20046;-60
2023/02/18 10:22:19;;;;;;;0.20;0.10;;;;;;;-142.37;100.00;59669.53;5092549;28;20468;-60
2023/02/18 10:24:47;;;;;;;0.28;0.10;;;;;;;-142.37;100.00;59669.53;5091416;28;20554;-61
2023/02/18 10:27:27;;;;;;;1.83;0.20;;;;;;;-142.37;100.00;59669.53;5091244;28;20119;-60
2023/02/18 10:29:55;;;;;;;1.60;0.20;;;;;;;-142.37;100.00;59669.53;5091463;28;20020;-60
2023/02/18 10:32:31;;;;;;;1.25;0.20;;;;;;;-142.37;100.00;59669.53;5091008;28;20031;-60
2023/02/18 10:35:33;;;;;;;2.42;0.10;;;;;;;-142.37;100.00;59669.53;5091155;28;20040;-60
2023/02/18 10:38:13;;;;;;;3.45;0.30;;;;;;;-142.37;100.00;59669.53;5082024;28;20043;-61
2023/02/18 10:41:07;;;;;;;4.40;0.40;;;;;;;-142.37;100.00;59669.53;5091042;28;20067;-61
2023/02/18 10:44:10;;;;;;;9.45;0.98;;;;;;;-142.37;100.00;59669.53;5090654;28;20036;-61
2023/02/18 10:46:54;;;;;;;7.85;0.40;;;;;;;-142.37;100.00;59669.53;5092357;28;20054;-59
2023/02/18 10:49:52;;;;;;;3.53;0.43;;;;;;;-142.37;100.00;59669.53;5090563;28;20024;-61
2023/02/18 10:52:18;;;;;;;5.22;0.30;;;;;;;-142.37;100.00;59669.53;5092475;28;20032;-59
2023/02/18 10:55:05;;;;;;;4.72;0.30;;;;;;;-142.37;100.00;59669.53;5090684;28;20039;-61
2023/02/18 10:57:32;;;;;;;1.27;0.20;;;;;;;-142.37;100.00;59669.53;5091308;28;20573;-60
2023/02/18 11:00:00;;;;;;;4.47;0.40;;;;;;;-142.37;100.00;59669.53;5091013;28;20481;-63
2023/02/18 11:02:31;;;;;;;3.42;0.20;;;;;;;-142.37;100.00;59669.53;5090966;28;20027;-61
2023/02/18 11:05:05;;;;;;;6.13;0.52;;;;;;;-142.37;100.00;59669.53;5092095;28;20366;-60
2023/02/18 11:07:34;;;;;;;0.90;0.10;;;;;;;-142.37;100.00;59669.53;5092093;28;20032;-61
2023/02/18 11:10:13;;;;;;;5.47;0.22;;;;;;;-142.37;100.00;59669.53;5092502;28;20111;-59
2023/02/18 11:12:44;;;;;;;4.05;0.38;;;;;;;-142.37;100.00;59669.53;5092012;28;20490;-61
2023/02/18 11:15:12;;;;;;;4.57;0.32;;;;;;;-142.37;100.00;59669.53;5091521;28;20396;-60
2023/02/18 11:17:38;;;;;;;10.55;1.58;;;;;;;-142.37;100.00;59669.53;5091602;28;20111;-60
2023/02/18 11:20:23;;;;;;;6.03;0.35;;;;;;;-142.37;100.00;59669.53;5090118;28;20085;-61